createdAt,value
2022-12-25T00:01:32.550Z,100518.41
2022-12-25T00:06:35.954Z,100518.80
2022-12-25T00:11:39.445Z,100521.36
2022-12-25T00:16:42.545Z,100522.94
2022-12-25T00:21:45.984Z,100530.14
2022-12-25T00:26:49.319Z,100529.60
2022-12-25T00:31:52.482Z,100526.77
2022-12-25T00:36:55.915Z,100538.39
2022-12-25T00:42:17.562Z,100539.76
2022-12-25T00:47:20.848Z,100545.21
2022-12-25T00:52:23.972Z,100555.48
2022-12-25T00:57:27.079Z,100566.21
2022-12-25T01:02:30.214Z,100579.81
2022-12-25T01:07:33.800Z,100586.30
2022-12-25T01:12:38.956Z,100594.83
2022-12-25T01:17:42.775Z,100599.85
2022-12-25T01:22:46.298Z,100600.45
2022-12-25T01:27:49.194Z,100593.08
2022-12-25T01:32:52.606Z,100597.87
2022-12-25T01:37:55.811Z,100606.77
2022-12-25T01:42:58.916Z,100603.83
2022-12-25T01:48:03.669Z,100598.34
2022-12-25T01:53:07.175Z,100592.17
2022-12-25T01:58:10.291Z,100589.60
2022-12-25T02:03:13.913Z,100583.73
2022-12-25T02:08:19.052Z,100582.45
2022-12-25T02:13:22.464Z,100594.70
2022-12-25T02:18:31.817Z,100602.64
2022-12-25T02:23:37.898Z,100607.61
2022-12-25T02:28:46.834Z,100617.81
2022-12-25T02:34:12.265Z,100621.65
2022-12-25T02:39:38.926Z,100618.14
2022-12-25T02:45:04.351Z,100613.65
2022-12-25T02:50:27.423Z,100614.63
2022-12-25T02:55:55.617Z,100615.11
2022-12-25T03:01:24.737Z,100619.96
2022-12-25T03:06:44.933Z,100623.64
2022-12-25T03:11:50.908Z,100628.71
2022-12-25T03:16:56.517Z,100629.69
2022-12-25T03:22:18.522Z,100630.21
2022-12-25T03:27:21.738Z,100624.77
2022-12-25T03:32:58.985Z,100620.66
2022-12-25T03:38:49.866Z,100623.98
2022-12-25T03:44:11.510Z,100623.44
2022-12-25T03:49:41.030Z,100624.25
2022-12-25T03:55:05.331Z,100625.15
2022-12-25T04:00:27.789Z,100633.77
2022-12-25T04:05:49.636Z,100641.16
2022-12-25T04:11:11.581Z,100635.55
2022-12-25T04:16:33.632Z,100635.95
2022-12-25T04:21:55.783Z,100634.73
2022-12-25T04:27:17.424Z,100640.00
2022-12-25T04:32:39.074Z,100645.02
2022-12-25T04:37:42.172Z,100649.48
2022-12-25T04:42:45.277Z,100648.38
2022-12-25T04:47:48.505Z,100641.54
2022-12-25T04:52:51.597Z,100642.91
2022-12-25T04:57:54.697Z,100644.96
2022-12-25T05:02:58.376Z,100642.82
2022-12-25T05:08:01.723Z,100646.10
2022-12-25T05:13:04.831Z,100656.77
2022-12-25T05:18:08.038Z,100656.00
2022-12-25T05:23:12.166Z,100657.93
2022-12-25T05:28:15.272Z,100661.09
2022-12-25T05:33:18.170Z,100671.05
2022-12-25T05:38:21.385Z,100675.85
2022-12-25T05:43:24.587Z,100682.91
2022-12-25T05:48:27.795Z,100686.17
2022-12-25T05:53:30.899Z,100682.75
2022-12-25T05:58:35.233Z,100686.63
2022-12-25T06:03:38.382Z,100685.42
2022-12-25T06:08:42.086Z,100688.61
2022-12-25T06:13:45.179Z,100699.58
2022-12-25T06:18:49.709Z,100703.30
2022-12-25T06:23:52.971Z,100702.83
2022-12-25T06:28:56.223Z,100713.74
2022-12-25T06:33:59.326Z,100720.85
2022-12-25T06:39:02.956Z,100725.05
2022-12-25T06:44:06.062Z,100739.05
2022-12-25T06:49:10.186Z,100744.67
2022-12-25T06:54:13.389Z,100756.23
2022-12-25T06:59:16.804Z,100779.76
2022-12-25T07:04:23.080Z,100791.02
2022-12-25T07:09:26.300Z,100791.92
2022-12-25T07:14:29.496Z,100788.19
2022-12-25T07:19:33.008Z,100797.20
2022-12-25T07:24:36.010Z,100814.38
2022-12-25T07:29:39.127Z,100816.11
2022-12-25T07:34:42.225Z,100823.55
2022-12-25T07:39:45.328Z,100829.20
2022-12-25T07:44:48.535Z,100831.19
2022-12-25T07:49:51.538Z,100844.17
2022-12-25T07:54:54.585Z,100846.58
2022-12-25T07:59:57.760Z,100854.14
2022-12-25T08:05:01.065Z,100855.63
2022-12-25T08:10:05.533Z,100858.47
2022-12-25T08:15:11.481Z,100866.52
2022-12-25T08:20:15.911Z,100873.29
2022-12-25T08:25:19.731Z,100881.00
2022-12-25T08:30:23.142Z,100883.16
2022-12-25T08:35:26.722Z,100882.15
2022-12-25T08:40:29.965Z,100880.98
2022-12-25T08:45:35.349Z,100884.73
2022-12-25T08:50:38.767Z,100891.43
2022-12-25T08:55:42.048Z,100904.46
2022-12-25T09:00:45.259Z,100893.48
2022-12-25T09:05:48.359Z,100890.77
2022-12-25T09:10:51.640Z,100886.98
2022-12-25T09:15:55.267Z,100890.20
2022-12-25T09:20:59.935Z,100889.02
2022-12-25T09:26:04.465Z,100893.88
2022-12-25T09:31:07.954Z,100901.85
2022-12-25T09:36:11.600Z,100893.33
2022-12-25T09:41:21.474Z,100895.07
2022-12-25T09:46:33.041Z,100899.62
2022-12-25T09:51:42.237Z,100900.85
2022-12-25T09:56:45.235Z,100905.66
2022-12-25T10:02:11.999Z,100900.31
2022-12-25T10:07:18.675Z,100908.27
2022-12-25T10:12:30.797Z,100909.30
2022-12-25T10:17:53.243Z,100905.05
2022-12-25T10:23:01.669Z,100905.89
2022-12-25T10:28:11.523Z,100913.46
2022-12-25T10:33:17.449Z,100915.69
2022-12-25T10:38:21.131Z,100909.02
2022-12-25T10:43:37.664Z,100898.08
2022-12-25T10:48:43.423Z,100893.51
2022-12-25T10:53:47.035Z,100894.90
2022-12-25T10:58:50.257Z,100894.85
2022-12-25T11:03:53.645Z,100895.67
2022-12-25T11:08:58.509Z,100892.91
2022-12-25T11:14:02.435Z,100889.28
2022-12-25T11:19:25.808Z,100885.13
2022-12-25T11:24:30.274Z,100891.67
2022-12-25T11:29:47.884Z,100899.70
2022-12-25T11:34:51.198Z,100900.80
2022-12-25T11:39:54.511Z,100909.84
2022-12-25T11:45:09.062Z,100913.91
2022-12-25T11:50:27.553Z,100919.60
2022-12-25T11:55:33.009Z,100922.61
2022-12-25T12:00:36.272Z,100927.13
2022-12-25T12:05:44.753Z,100930.38
2022-12-25T12:10:57.696Z,100927.91
2022-12-25T12:16:01.167Z,100923.89
2022-12-25T12:21:24.297Z,100922.20
2022-12-25T12:26:29.080Z,100919.52
2022-12-25T12:31:40.092Z,100912.69
2022-12-25T12:36:43.538Z,100901.00
2022-12-25T12:41:48.604Z,100896.67
2022-12-25T12:46:56.314Z,100901.52
2022-12-25T12:52:03.668Z,100905.36
2022-12-25T12:57:21.767Z,100903.81
2022-12-25T13:02:31.144Z,100902.95
2022-12-25T13:07:44.343Z,100913.51
2022-12-25T13:12:51.589Z,100921.05
2022-12-25T13:17:56.599Z,100921.05
2022-12-25T13:23:00.016Z,100921.80
2022-12-25T13:28:05.271Z,100922.99
2022-12-25T13:33:16.708Z,100918.39
2022-12-25T13:38:20.696Z,100915.27
2022-12-25T13:43:26.669Z,100918.82
2022-12-25T13:48:31.200Z,100913.79
2022-12-25T13:53:35.228Z,100916.11
2022-12-25T13:58:39.737Z,100921.30
2022-12-25T14:03:45.716Z,100921.31
2022-12-25T14:08:49.319Z,100919.49
2022-12-25T14:13:55.532Z,100913.23
2022-12-25T14:19:01.795Z,100910.56
2022-12-25T14:24:12.118Z,100910.21
2022-12-25T14:29:18.204Z,100916.29
2022-12-25T14:34:23.435Z,100928.75
2022-12-25T14:39:30.758Z,100944.52
2022-12-25T14:44:36.609Z,100952.68
2022-12-25T14:49:39.913Z,100960.47
2022-12-25T14:54:48.554Z,100964.73
2022-12-25T14:59:59.641Z,100970.58
2022-12-25T15:05:03.156Z,100968.17
2022-12-25T15:10:57.553Z,100961.34
2022-12-25T15:15:37.693Z,100957.34
2022-12-25T15:20:41.461Z,100947.02
2022-12-25T15:25:45.277Z,100954.14
2022-12-25T15:30:50.363Z,100959.84
2022-12-25T15:35:54.462Z,100952.44
2022-12-25T15:40:58.158Z,100945.02
2022-12-25T15:46:02.771Z,100932.54
2022-12-25T15:51:06.638Z,100920.54
2022-12-25T15:56:11.201Z,100913.65
2022-12-25T16:01:18.939Z,100908.02
2022-12-25T16:06:22.209Z,100918.70
2022-12-25T16:11:26.030Z,100943.85
2022-12-25T16:16:29.624Z,100953.39
2022-12-25T16:21:38.608Z,100946.52
2022-12-25T16:26:43.152Z,100940.68
2022-12-25T16:31:46.598Z,100951.52
2022-12-25T16:36:50.057Z,100956.93
2022-12-25T16:41:53.063Z,100948.60
2022-12-25T16:46:56.420Z,100941.05
2022-12-25T16:51:59.994Z,100951.98
2022-12-25T16:57:03.311Z,100949.86
2022-12-25T17:02:07.279Z,100933.83
2022-12-25T17:07:12.498Z,100934.07
2022-12-25T17:12:16.206Z,100937.13
2022-12-25T17:17:19.518Z,100942.84
2022-12-25T17:22:22.725Z,100935.66
2022-12-25T17:27:26.043Z,100930.28
2022-12-25T17:32:29.859Z,100928.74
2022-12-25T17:37:33.783Z,100923.86
2022-12-25T17:42:38.314Z,100921.92
2022-12-25T17:47:42.721Z,100923.11
2022-12-25T17:52:46.738Z,100923.09
2022-12-25T17:57:51.967Z,100924.08
2022-12-25T18:02:56.858Z,100919.17
2022-12-25T18:08:01.115Z,100910.59
2022-12-25T18:13:05.043Z,100907.21
2022-12-25T18:18:08.676Z,100903.92
2022-12-25T18:23:12.383Z,100902.26
2022-12-25T18:28:15.740Z,100890.07
2022-12-25T18:33:19.307Z,100881.85
2022-12-25T18:38:22.518Z,100877.20
2022-12-25T18:43:51.437Z,100882.74
2022-12-25T18:48:49.466Z,100887.39
2022-12-25T18:53:52.929Z,100884.99
2022-12-25T18:58:56.336Z,100877.26
2022-12-25T19:04:05.064Z,100873.39
2022-12-25T19:09:09.633Z,100867.45
2022-12-25T19:14:13.071Z,100856.58
2022-12-25T19:19:16.555Z,100850.52
2022-12-25T19:24:19.861Z,100845.96
2022-12-25T19:29:23.479Z,100833.79
2022-12-25T19:34:27.643Z,100831.39
2022-12-25T19:39:30.825Z,100828.88
2022-12-25T19:44:34.139Z,100823.36
2022-12-25T19:49:37.448Z,100815.52
2022-12-25T19:54:40.560Z,100802.09
2022-12-25T19:59:43.846Z,100802.34
2022-12-25T20:04:47.258Z,100808.23
2022-12-25T20:09:50.675Z,100818.63
2022-12-25T20:14:53.875Z,100823.02
2022-12-25T20:19:57.085Z,100821.84
2022-12-25T20:25:00.129Z,100817.96
2022-12-25T20:30:07.812Z,100815.10
2022-12-25T20:35:20.708Z,100818.15
2022-12-25T20:40:24.974Z,100817.33
2022-12-25T20:45:30.423Z,100818.04
2022-12-25T20:50:34.468Z,100811.47
2022-12-25T20:55:37.984Z,100800.70
2022-12-25T21:00:42.883Z,100798.92
2022-12-25T21:05:53.406Z,100792.27
2022-12-25T21:11:01.184Z,100768.15
2022-12-25T21:16:05.564Z,100764.21
2022-12-25T21:21:09.175Z,100760.73
2022-12-25T21:26:23.278Z,100756.71
2022-12-25T21:31:27.377Z,100748.23
2022-12-25T21:36:32.747Z,100733.50
2022-12-25T21:41:37.364Z,100721.94
2022-12-25T21:46:41.139Z,100718.50
2022-12-25T21:52:03.440Z,100723.02
2022-12-25T21:57:06.763Z,100715.66
2022-12-25T22:02:12.028Z,100704.08
2022-12-25T22:07:18.324Z,100702.06
2022-12-25T22:12:40.529Z,100698.77
2022-12-25T22:18:02.506Z,100678.67
2022-12-25T22:23:05.711Z,100665.41
2022-12-25T22:28:08.809Z,100660.09
2022-12-25T22:33:12.225Z,100646.29
2022-12-25T22:38:15.834Z,100630.02
2022-12-25T22:43:19.250Z,100618.59
2022-12-25T22:48:22.511Z,100614.31
2022-12-25T22:53:25.978Z,100603.84
2022-12-25T22:58:29.285Z,100591.23
2022-12-25T23:03:32.597Z,100584.56
2022-12-25T23:08:35.809Z,100584.00
2022-12-25T23:13:57.546Z,100579.24
2022-12-25T23:19:20.128Z,100565.10
2022-12-25T23:24:42.464Z,100552.30
2022-12-25T23:29:46.325Z,100532.35
2022-12-25T23:34:49.911Z,100540.15
2022-12-25T23:39:53.314Z,100554.22
2022-12-25T23:44:56.419Z,100559.66
2022-12-25T23:49:59.536Z,100558.24
2022-12-25T23:55:02.630Z,100557.39
